createdAt,value
2022-10-29T00:02:25.178Z,87.48
2022-10-29T00:04:55.992Z,87.55
2022-10-29T00:07:26.315Z,87.18
2022-10-29T00:09:56.444Z,87.11
2022-10-29T00:12:27.473Z,87.12
2022-10-29T00:14:57.684Z,87.17
2022-10-29T00:17:28.095Z,87.17
2022-10-29T00:23:38.963Z,87.06
2022-10-29T00:26:09.927Z,87.08
2022-10-29T00:28:40.036Z,87.25
2022-10-29T00:31:13.007Z,87.31
2022-10-29T00:33:43.380Z,87.52
2022-10-29T00:36:16.533Z,87.87
2022-10-29T00:38:47.135Z,87.61
2022-10-29T00:41:20.705Z,87.65
2022-10-29T00:43:53.160Z,87.49
2022-10-29T00:46:33.917Z,87.81
2022-10-29T00:49:04.357Z,87.52
2022-10-29T00:51:35.761Z,87.45
2022-10-29T00:54:10.042Z,87.46
2022-10-29T00:56:54.382Z,87.76
2022-10-29T00:59:25.047Z,87.83
2022-10-29T01:01:56.359Z,87.69
2022-10-29T01:04:27.544Z,87.62
2022-10-29T01:06:57.727Z,87.75
2022-10-29T01:09:27.795Z,87.61
2022-10-29T01:12:25.357Z,88.24
2022-10-29T01:14:58.420Z,88.12
2022-10-29T01:17:37.649Z,87.88
2022-10-29T01:20:25.798Z,88.50
2022-10-29T01:23:01.761Z,88.03
2022-10-29T01:26:10.592Z,88.34
2022-10-29T01:29:10.719Z,88.22
2022-10-29T01:32:04.369Z,88.12
2022-10-29T01:34:53.011Z,88.07
2022-10-29T01:37:56.121Z,88.60
2022-10-29T01:40:35.297Z,88.24
2022-10-29T01:43:14.184Z,88.24
2022-10-29T01:45:55.521Z,88.33
2022-10-29T01:48:35.530Z,88.23
2022-10-29T01:51:11.712Z,88.37
2022-10-29T01:53:42.008Z,88.31
2022-10-29T01:56:12.193Z,88.37
2022-10-29T01:58:47.246Z,88.60
2022-10-29T02:01:52.176Z,88.81
2022-10-29T02:04:57.359Z,88.91
2022-10-29T02:07:54.626Z,88.80
2022-10-29T02:10:30.683Z,88.52
2022-10-29T02:13:01.186Z,88.55
2022-10-29T02:15:39.746Z,88.82
2022-10-29T02:18:18.948Z,88.35
2022-10-29T02:20:57.061Z,88.63
2022-10-29T02:23:29.252Z,88.42
2022-10-29T02:25:59.599Z,88.37
2022-10-29T02:28:29.844Z,88.55
2022-10-29T02:30:59.963Z,88.60
2022-10-29T02:33:30.057Z,88.47
2022-10-29T02:36:00.174Z,88.46
2022-10-29T02:38:30.331Z,88.45
2022-10-29T02:41:00.436Z,88.54
2022-10-29T02:43:30.538Z,88.63
2022-10-29T02:46:15.520Z,88.89
2022-10-29T02:48:45.690Z,88.59
2022-10-29T02:51:16.409Z,88.61
2022-10-29T02:53:46.604Z,88.90
2022-10-29T02:56:16.754Z,88.66
2022-10-29T02:58:46.928Z,88.72
2022-10-29T03:01:17.255Z,88.84
2022-10-29T03:03:47.486Z,88.79
2022-10-29T03:06:19.833Z,88.51
2022-10-29T03:08:50.258Z,88.54
2022-10-29T03:11:20.396Z,88.36
2022-10-29T03:13:50.948Z,88.35
2022-10-29T03:16:21.000Z,88.43
2022-10-29T03:18:51.234Z,88.52
2022-10-29T03:21:21.372Z,88.44
2022-10-29T03:23:51.681Z,88.28
2022-10-29T03:26:21.822Z,88.27
2022-10-29T03:28:51.950Z,88.21
2022-10-29T03:31:22.026Z,88.26
2022-10-29T03:33:52.362Z,88.35
2022-10-29T03:36:22.566Z,88.31
2022-10-29T03:38:52.751Z,88.22
2022-10-29T03:41:22.901Z,88.53
2022-10-29T03:43:53.315Z,88.57
2022-10-29T03:46:23.407Z,88.66
2022-10-29T03:48:53.568Z,88.58
2022-10-29T03:51:23.821Z,88.53
2022-10-29T03:53:53.946Z,88.38
2022-10-29T03:56:24.169Z,88.33
2022-10-29T03:58:54.278Z,88.41
2022-10-29T04:01:24.638Z,88.35
2022-10-29T04:03:54.848Z,88.34
2022-10-29T04:06:25.005Z,88.25
2022-10-29T04:08:55.424Z,88.37
2022-10-29T04:11:25.616Z,88.44
2022-10-29T04:13:55.753Z,88.15
2022-10-29T04:16:25.965Z,88.14
2022-10-29T04:18:56.100Z,88.28
2022-10-29T04:29:56.732Z,88.01
2022-10-29T04:32:27.891Z,87.93
2022-10-29T04:34:57.983Z,87.91
2022-10-29T04:37:31.190Z,88.10
2022-10-29T04:40:01.300Z,88.01
2022-10-29T04:42:39.964Z,87.93
2022-10-29T04:45:10.418Z,87.59
2022-10-29T04:47:40.519Z,87.76
2022-10-29T04:50:10.650Z,87.87
2022-10-29T04:52:40.826Z,87.97
2022-10-29T04:55:10.994Z,87.87
2022-10-29T04:57:41.096Z,87.85
2022-10-29T05:00:16.299Z,87.68
2022-10-29T05:02:52.724Z,87.70
2022-10-29T05:05:23.580Z,87.89
2022-10-29T05:08:01.077Z,88.04
2022-10-29T05:10:34.283Z,88.01
2022-10-29T05:13:11.906Z,88.01
2022-10-29T05:15:42.266Z,87.95
2022-10-29T05:18:12.363Z,87.76
2022-10-29T05:20:42.576Z,87.71
2022-10-29T05:23:12.907Z,87.74
2022-10-29T05:25:49.260Z,87.70
2022-10-29T05:28:22.107Z,87.80
2022-10-29T05:30:53.729Z,87.84
2022-10-29T05:33:25.183Z,87.76
2022-10-29T05:35:55.312Z,87.83
2022-10-29T05:38:25.552Z,88.07
2022-10-29T05:40:58.926Z,88.18
2022-10-29T05:43:31.138Z,88.33
2022-10-29T05:46:04.696Z,88.29
2022-10-29T05:48:34.828Z,88.12
2022-10-29T05:51:05.105Z,88.25
2022-10-29T05:53:36.695Z,88.37
2022-10-29T05:56:09.208Z,88.30
2022-10-29T05:58:39.488Z,88.43
2022-10-29T06:01:20.193Z,88.78
2022-10-29T06:03:50.569Z,88.97
2022-10-29T06:06:24.967Z,88.99
2022-10-29T06:08:56.158Z,89.17
2022-10-29T06:11:26.401Z,89.28
2022-10-29T06:13:56.854Z,89.40
2022-10-29T06:16:27.149Z,89.33
2022-10-29T06:18:57.221Z,89.51
2022-10-29T06:21:27.396Z,89.72
2022-10-29T06:23:58.106Z,89.80
2022-10-29T06:26:28.307Z,89.93
2022-10-29T06:28:58.476Z,89.97
2022-10-29T06:31:28.708Z,90.11
2022-10-29T06:33:58.967Z,90.00
2022-10-29T06:36:29.124Z,90.14
2022-10-29T06:38:59.313Z,90.21
2022-10-29T06:41:29.432Z,90.07
2022-10-29T06:43:59.570Z,90.15
2022-10-29T06:46:30.996Z,90.16
2022-10-29T06:49:02.433Z,90.40
2022-10-29T06:51:32.616Z,90.38
2022-10-29T06:54:02.832Z,90.55
2022-10-29T06:56:33.942Z,90.63
2022-10-29T06:59:04.440Z,90.43
2022-10-29T07:01:34.744Z,90.62
2022-10-29T07:04:05.150Z,90.60
2022-10-29T07:06:35.276Z,90.61
2022-10-29T07:09:05.443Z,90.77
2022-10-29T07:11:35.630Z,90.61
2022-10-29T07:14:06.198Z,90.74
2022-10-29T07:16:36.996Z,90.78
2022-10-29T07:19:08.209Z,90.99
2022-10-29T07:21:38.361Z,91.10
2022-10-29T07:24:08.794Z,90.91
2022-10-29T07:26:39.311Z,91.28
2022-10-29T07:29:09.482Z,91.33
2022-10-29T07:31:39.575Z,91.46
2022-10-29T07:34:09.700Z,91.43
2022-10-29T07:36:39.975Z,91.52
2022-10-29T07:39:10.408Z,91.45
2022-10-29T07:41:40.761Z,91.30
2022-10-29T07:44:11.276Z,91.20
2022-10-29T07:46:41.506Z,91.31
2022-10-29T07:49:11.779Z,91.24
2022-10-29T07:51:42.480Z,91.20
2022-10-29T07:54:14.839Z,91.54
2022-10-29T07:56:47.603Z,91.48
2022-10-29T07:59:19.340Z,91.29
2022-10-29T08:01:49.757Z,91.41
2022-10-29T08:04:20.182Z,91.45
2022-10-29T08:06:50.347Z,90.72
2022-10-29T08:09:20.522Z,90.75
2022-10-29T08:11:53.831Z,90.56
2022-10-29T08:14:26.678Z,90.22
2022-10-29T08:16:56.786Z,89.63
2022-10-29T08:19:26.926Z,89.29
2022-10-29T08:21:57.222Z,89.18
2022-10-29T08:24:27.515Z,87.85
2022-10-29T08:26:57.731Z,88.09
2022-10-29T08:29:28.253Z,87.29
2022-10-29T08:31:58.584Z,87.01
2022-10-29T08:34:28.761Z,86.76
2022-10-29T08:37:02.300Z,86.35
2022-10-29T08:39:32.550Z,86.08
2022-10-29T08:42:40.548Z,85.75
2022-10-29T08:45:48.341Z,83.63
2022-10-29T08:48:34.635Z,83.88
2022-10-29T08:51:11.068Z,83.53
2022-10-29T08:53:54.234Z,84.19
2022-10-29T08:56:39.558Z,84.50
2022-10-29T08:59:18.133Z,84.16
2022-10-29T09:01:48.744Z,83.49
2022-10-29T09:04:22.367Z,83.01
2022-10-29T09:07:11.771Z,81.47
2022-10-29T09:09:47.433Z,82.60
2022-10-29T09:12:38.160Z,81.98
2022-10-29T09:15:28.867Z,82.01
2022-10-29T09:18:20.886Z,80.50
2022-10-29T09:21:12.942Z,80.90
2022-10-29T09:24:13.516Z,81.61
2022-10-29T09:26:53.261Z,82.49
2022-10-29T09:29:47.114Z,80.93
2022-10-29T09:32:40.424Z,77.67
2022-10-29T09:35:19.306Z,80.70
2022-10-29T09:38:09.050Z,78.98
2022-10-29T09:40:45.781Z,79.92
2022-10-29T09:43:19.849Z,79.68
2022-10-29T09:46:13.211Z,78.27
2022-10-29T09:49:02.686Z,76.14
2022-10-29T09:52:10.274Z,76.74
2022-10-29T09:54:40.592Z,78.60
2022-10-29T09:57:29.632Z,75.95
2022-10-29T10:00:03.064Z,76.69
2022-10-29T10:02:43.828Z,75.79
2022-10-29T10:05:14.825Z,76.41
2022-10-29T10:08:06.617Z,74.36
2022-10-29T10:10:51.926Z,76.52
2022-10-29T10:13:35.050Z,75.07
2022-10-29T10:16:08.281Z,76.40
2022-10-29T10:21:33.537Z,73.20
2022-10-29T10:24:28.281Z,70.51
2022-10-29T10:26:58.771Z,73.44
2022-10-29T10:29:29.821Z,73.36
2022-10-29T10:31:59.921Z,73.10
2022-10-29T10:34:33.024Z,72.17
2022-10-29T10:37:20.521Z,68.24
2022-10-29T10:40:06.359Z,72.23
2022-10-29T10:42:43.125Z,69.89
2022-10-29T10:45:16.798Z,71.92
2022-10-29T10:47:53.287Z,70.76
2022-10-29T10:50:32.863Z,71.09
2022-10-29T10:53:07.144Z,71.85
2022-10-29T10:55:39.048Z,71.61
2022-10-29T10:58:25.793Z,71.63
2022-10-29T11:01:04.222Z,71.36
2022-10-29T11:03:43.126Z,69.89
2022-10-29T11:06:18.414Z,69.55
2022-10-29T11:09:08.898Z,68.09
2022-10-29T11:11:45.693Z,68.53
2022-10-29T11:14:25.126Z,69.09
2022-10-29T11:16:59.344Z,69.61
2022-10-29T11:19:50.277Z,65.87
2022-10-29T11:22:47.462Z,66.65
2022-10-29T11:25:40.089Z,67.52
2022-10-29T11:28:16.024Z,69.42
2022-10-29T11:31:07.900Z,68.21
2022-10-29T11:33:45.962Z,67.24
2022-10-29T11:36:23.228Z,68.31
2022-10-29T11:39:02.453Z,67.78
2022-10-29T11:41:57.233Z,67.83
2022-10-29T11:44:31.357Z,68.82
2022-10-29T11:47:37.857Z,65.92
2022-10-29T11:50:11.003Z,68.10
2022-10-29T11:52:52.380Z,68.00
2022-10-29T11:55:41.245Z,66.37
2022-10-29T11:58:26.095Z,67.04
2022-10-29T12:01:00.721Z,68.16
2022-10-29T12:03:59.735Z,66.89
2022-10-29T12:06:39.583Z,68.45
2022-10-29T12:09:31.785Z,67.45
2022-10-29T12:12:17.496Z,67.40
2022-10-29T12:14:55.024Z,68.15
2022-10-29T12:17:51.498Z,67.27
2022-10-29T12:20:37.675Z,66.89
2022-10-29T12:23:50.018Z,64.91
2022-10-29T12:26:43.199Z,66.77
2022-10-29T12:29:25.786Z,66.26
2022-10-29T12:32:13.551Z,65.04
2022-10-29T12:34:52.915Z,68.15
2022-10-29T12:37:37.796Z,66.99
2022-10-29T12:40:27.162Z,65.12
2022-10-29T12:43:04.343Z,67.02
2022-10-29T12:46:06.357Z,67.70
2022-10-29T12:48:37.096Z,66.92
2022-10-29T12:51:14.201Z,66.15
2022-10-29T12:53:57.278Z,64.64
2022-10-29T12:56:29.228Z,67.15
2022-10-29T12:59:25.333Z,64.47
2022-10-29T13:02:11.122Z,66.95
2022-10-29T13:05:09.875Z,63.50
2022-10-29T13:07:48.201Z,65.17
2022-10-29T13:10:26.638Z,66.28
2022-10-29T13:13:00.094Z,65.71
2022-10-29T13:15:39.283Z,65.51
2022-10-29T13:18:13.146Z,66.73
2022-10-29T13:20:48.790Z,66.16
2022-10-29T13:23:22.270Z,65.12
2022-10-29T13:25:53.516Z,66.80
2022-10-29T13:28:23.708Z,66.60
2022-10-29T13:30:59.838Z,66.26
2022-10-29T13:33:30.020Z,66.61
2022-10-29T13:36:05.548Z,66.02
2022-10-29T13:39:07.714Z,64.64
2022-10-29T13:41:50.447Z,65.59
2022-10-29T13:44:26.555Z,66.30
2022-10-29T13:47:06.613Z,65.86
2022-10-29T13:49:43.044Z,66.69
2022-10-29T13:52:22.101Z,66.47
2022-10-29T13:54:58.543Z,66.31
2022-10-29T13:57:37.649Z,64.63
2022-10-29T14:00:18.718Z,65.62
2022-10-29T14:02:56.116Z,67.26
2022-10-29T14:05:40.534Z,66.52
2022-10-29T14:08:31.653Z,66.76
2022-10-29T14:11:09.918Z,66.82
2022-10-29T14:13:50.336Z,66.53
2022-10-29T14:16:35.708Z,65.39
2022-10-29T14:19:21.378Z,63.94
2022-10-29T14:21:54.496Z,66.55
2022-10-29T14:24:39.274Z,64.51
2022-10-29T14:27:14.423Z,66.08
2022-10-29T14:29:45.197Z,66.40
2022-10-29T14:32:23.457Z,65.68
2022-10-29T14:34:55.326Z,65.94
2022-10-29T14:37:32.959Z,64.78
2022-10-29T14:40:17.592Z,64.88
2022-10-29T14:42:56.444Z,65.05
2022-10-29T14:45:31.705Z,65.29
2022-10-29T14:48:10.656Z,64.56
2022-10-29T14:50:48.311Z,65.04
2022-10-29T14:53:34.691Z,64.47
2022-10-29T14:56:19.219Z,64.53
2022-10-29T14:58:50.220Z,65.41
2022-10-29T15:01:22.449Z,65.58
2022-10-29T15:04:01.266Z,64.63
2022-10-29T15:06:33.277Z,65.39
2022-10-29T15:09:07.204Z,65.13
2022-10-29T15:11:48.599Z,64.37
2022-10-29T15:14:31.423Z,64.20
2022-10-29T15:17:11.513Z,64.76
2022-10-29T15:19:44.907Z,65.03
2022-10-29T15:22:22.961Z,64.52
2022-10-29T15:24:55.619Z,65.01
2022-10-29T15:27:27.128Z,65.00
2022-10-29T15:29:58.358Z,65.22
2022-10-29T15:32:31.421Z,64.94
2022-10-29T15:35:01.992Z,65.24
2022-10-29T15:37:32.087Z,64.79
2022-10-29T15:40:13.665Z,64.00
2022-10-29T15:42:45.647Z,65.38
2022-10-29T15:45:19.197Z,65.40
2022-10-29T15:48:28.620Z,63.70
2022-10-29T15:50:58.905Z,65.38
2022-10-29T15:53:29.265Z,65.66
2022-10-29T15:55:59.353Z,65.49
2022-10-29T15:58:29.949Z,65.36
2022-10-29T16:01:00.768Z,65.15
2022-10-29T16:03:34.188Z,64.99
2022-10-29T16:06:09.851Z,65.10
2022-10-29T16:08:44.849Z,64.54
2022-10-29T16:11:20.404Z,64.71
2022-10-29T16:13:55.037Z,64.66
2022-10-29T16:16:26.087Z,64.96
2022-10-29T16:18:56.187Z,64.66
2022-10-29T16:21:26.722Z,64.60
2022-10-29T16:23:57.356Z,64.65
2022-10-29T16:26:27.561Z,64.61
2022-10-29T16:28:57.852Z,64.77
2022-10-29T16:31:29.325Z,64.57
2022-10-29T16:34:03.335Z,64.69
2022-10-29T16:36:35.045Z,64.66
2022-10-29T16:39:06.105Z,64.82
2022-10-29T16:41:37.890Z,64.74
2022-10-29T16:44:08.236Z,64.58
2022-10-29T16:46:44.634Z,64.75
2022-10-29T16:49:14.983Z,64.49
2022-10-29T16:51:50.246Z,64.93
2022-10-29T16:54:21.152Z,65.17
2022-10-29T16:56:55.153Z,64.81
2022-10-29T16:59:25.464Z,64.79
2022-10-29T17:01:56.303Z,64.73
2022-10-29T17:04:27.197Z,64.81
2022-10-29T17:07:10.574Z,64.98
2022-10-29T17:09:41.050Z,65.07
2022-10-29T17:12:11.443Z,65.26
2022-10-29T17:14:41.964Z,65.27
2022-10-29T17:17:12.157Z,65.30
2022-10-29T17:19:43.886Z,65.60
2022-10-29T17:22:16.309Z,65.67
2022-10-29T17:24:46.669Z,65.76
2022-10-29T17:27:17.580Z,65.59
2022-10-29T17:29:53.441Z,65.82
2022-10-29T17:32:25.679Z,65.87
2022-10-29T17:34:55.825Z,65.75
2022-10-29T17:37:28.462Z,65.79
2022-10-29T17:40:03.125Z,65.62
2022-10-29T17:42:40.629Z,65.48
2022-10-29T17:45:27.793Z,65.51
2022-10-29T17:48:00.014Z,65.79
2022-10-29T17:50:32.053Z,65.94
2022-10-29T17:53:05.349Z,66.00
2022-10-29T17:55:36.264Z,65.97
2022-10-29T17:58:06.376Z,65.96
2022-10-29T18:00:36.834Z,65.93
2022-10-29T18:03:10.866Z,66.09
2022-10-29T18:05:41.959Z,65.92
2022-10-29T18:08:12.999Z,66.05
2022-10-29T18:10:44.070Z,65.65
2022-10-29T18:13:14.626Z,65.54
2022-10-29T18:15:44.769Z,65.62
2022-10-29T18:18:15.021Z,65.57
2022-10-29T18:20:45.169Z,65.66
2022-10-29T18:23:16.852Z,65.61
2022-10-29T18:26:02.710Z,65.41
2022-10-29T18:28:33.700Z,65.41
2022-10-29T18:31:03.965Z,65.33
2022-10-29T18:33:34.272Z,65.51
2022-10-29T18:36:05.019Z,65.56
2022-10-29T18:38:35.396Z,65.53
2022-10-29T18:41:06.357Z,65.25
2022-10-29T18:43:36.872Z,65.47
2022-10-29T18:46:07.885Z,66.28
2022-10-29T18:48:39.904Z,66.02
2022-10-29T18:51:12.971Z,66.09
2022-10-29T18:53:43.399Z,66.29
2022-10-29T18:56:16.201Z,66.32
2022-10-29T18:58:47.682Z,66.41
2022-10-29T19:01:23.652Z,66.45
2022-10-29T19:03:57.172Z,66.50
2022-10-29T19:06:30.842Z,66.31
2022-10-29T19:09:03.092Z,66.42
2022-10-29T19:11:34.032Z,66.50
2022-10-29T19:14:07.044Z,66.55
2022-10-29T19:16:37.918Z,66.76
2022-10-29T19:19:11.763Z,66.67
2022-10-29T19:21:43.258Z,66.94
2022-10-29T19:24:15.010Z,66.82
2022-10-29T19:26:45.224Z,66.81
2022-10-29T19:29:15.593Z,67.25
2022-10-29T19:31:47.011Z,67.44
2022-10-29T19:34:17.689Z,67.38
2022-10-29T19:36:47.810Z,67.41
2022-10-29T19:39:17.937Z,67.48
2022-10-29T19:41:48.078Z,67.23
2022-10-29T19:44:18.163Z,67.46
2022-10-29T19:46:48.593Z,67.29
2022-10-29T19:49:18.860Z,67.38
2022-10-29T19:51:49.532Z,67.83
2022-10-29T19:54:19.713Z,67.99
2022-10-29T19:56:50.703Z,68.16
2022-10-29T19:59:20.809Z,68.07
2022-10-29T20:01:51.035Z,67.99
2022-10-29T20:04:21.304Z,67.54
2022-10-29T20:06:51.638Z,67.58
2022-10-29T20:09:22.132Z,67.82
2022-10-29T20:11:52.183Z,68.03
2022-10-29T20:14:27.966Z,68.27
2022-10-29T20:16:58.891Z,67.26
2022-10-29T20:19:29.641Z,68.18
2022-10-29T20:21:59.708Z,68.26
2022-10-29T20:24:29.928Z,68.25
2022-10-29T20:27:00.163Z,68.55
2022-10-29T20:29:31.581Z,68.52
2022-10-29T20:32:08.852Z,68.21
2022-10-29T20:34:39.419Z,68.07
2022-10-29T20:37:17.551Z,68.25
2022-10-29T20:39:47.849Z,68.32
2022-10-29T20:42:18.307Z,68.25
2022-10-29T20:44:48.693Z,68.24
2022-10-29T20:47:19.802Z,68.25
2022-10-29T20:49:51.285Z,68.21
2022-10-29T20:52:21.517Z,68.19
2022-10-29T20:54:51.798Z,68.21
2022-10-29T20:57:22.039Z,68.20
2022-10-29T20:59:52.309Z,68.00
2022-10-29T21:02:23.040Z,67.71
2022-10-29T21:04:53.379Z,67.66
2022-10-29T21:07:23.644Z,67.78
2022-10-29T21:09:53.821Z,67.77
2022-10-29T21:12:24.099Z,67.63
2022-10-29T21:14:56.223Z,67.15
2022-10-29T21:17:26.644Z,67.71
2022-10-29T21:19:57.408Z,67.63
2022-10-29T21:22:27.828Z,67.75
2022-10-29T21:24:58.565Z,68.07
2022-10-29T21:27:29.291Z,67.88
2022-10-29T21:29:59.501Z,67.72
2022-10-29T21:32:30.005Z,67.50
2022-10-29T21:35:00.326Z,67.73
2022-10-29T21:37:30.400Z,67.74
2022-10-29T21:40:03.439Z,67.57
2022-10-29T21:42:36.730Z,67.55
2022-10-29T21:45:07.595Z,67.87
2022-10-29T21:47:37.969Z,68.17
2022-10-29T21:50:09.559Z,68.28
2022-10-29T21:52:41.030Z,67.86
2022-10-29T21:55:11.488Z,68.12
2022-10-29T21:57:45.037Z,68.06
2022-10-29T22:00:17.402Z,68.46
2022-10-29T22:02:47.695Z,68.70
2022-10-29T22:05:18.156Z,68.25
2022-10-29T22:07:48.479Z,68.15
2022-10-29T22:10:19.340Z,68.04
2022-10-29T22:12:50.082Z,67.99
2022-10-29T22:15:20.373Z,68.09
2022-10-29T22:17:51.866Z,68.27
2022-10-29T22:20:22.342Z,68.67
2022-10-29T22:22:59.081Z,68.30
2022-10-29T22:25:29.571Z,68.25
2022-10-29T22:28:00.230Z,68.16
2022-10-29T22:30:31.391Z,68.19
2022-10-29T22:33:02.498Z,68.29
2022-10-29T22:35:33.159Z,68.53
2022-10-29T22:38:03.598Z,68.25
2022-10-29T22:40:40.749Z,68.09
2022-10-29T22:43:12.335Z,68.11
2022-10-29T22:45:45.347Z,68.18
2022-10-29T22:48:15.886Z,68.38
2022-10-29T22:50:46.117Z,68.17
2022-10-29T22:53:16.322Z,68.00
2022-10-29T22:55:52.117Z,68.25
2022-10-29T22:58:22.978Z,68.33
2022-10-29T23:01:07.851Z,68.03
2022-10-29T23:03:39.491Z,68.35
2022-10-29T23:06:12.356Z,68.23
2022-10-29T23:08:44.231Z,68.54
2022-10-29T23:11:19.740Z,68.30
2022-10-29T23:13:53.173Z,68.19
2022-10-29T23:16:25.152Z,68.07
2022-10-29T23:18:58.355Z,68.11
2022-10-29T23:21:29.167Z,68.29
2022-10-29T23:23:59.942Z,68.20
2022-10-29T23:26:30.734Z,68.00
2022-10-29T23:29:00.924Z,67.95
2022-10-29T23:31:33.427Z,68.28
2022-10-29T23:34:03.693Z,68.16
2022-10-29T23:36:34.034Z,68.27
2022-10-29T23:39:04.304Z,68.28
2022-10-29T23:41:34.463Z,68.41
2022-10-29T23:44:05.067Z,68.33
2022-10-29T23:46:35.399Z,68.34
2022-10-29T23:49:05.596Z,68.44
2022-10-29T23:54:11.163Z,68.51
2022-10-29T23:56:41.572Z,68.33
2022-10-29T23:59:12.028Z,68.65
